Palmdale Regional/USAF Plant 42 Airport
KPMD : now visible

Airfield :











YOU CAN JOIN US ON...

 
LOGIN :

Register | Disclaimer

   EN    FR    IT 

 









Legend :    VFR   Marginal VFR   IFR   Intensive IFR   Very Intensive IFR
Visi :
Ceiling :
>= 8 km
>= 3000ft
5 to 8 km
1000 to 3000 ft
1500m to 5 km
500 to 1000 ft
800 to 1500m
200 to 500 ft
< 800m
< 200 ft
Symbols :   Thunderstorms  Fog  Heavy snow  Heavy precipitations  Wind > 20 kt






- Airport Elevation : 2543 ft
- IATA code : PMD


KPMD - Palmdale Regional/USAF Plant 42

CURRENT METAR :
  • 110753Z AUTO 18007KT 10SM CLR 03/01 A3024 RMK AO2 SLP242 T00330011 401390006

EXPIRED METARs :
  • 110653Z AUTO 20006KT 10SM CLR 04/02 A3025 RMK AO2 SLP246 T00440017
  • 110553Z 17006KT 10SM CLR 04/02 A3025 RMK AO2 SLP246 T00390017 10128 20039 53002

TAF KPMD
Valid from the 11 at 06:00 until the 12 at 06:00 UTC


110531Z 1106/1206 VRB05KT P6SM BKN200
FM112200 26007KT P6SM SCT200



MET'MAP, your aeronautical weather chart ! - Copyright ORBIFLY December 2007 - Disclaimer

ORBIFLY MET'MAP TEAM :

Programming & Development : Alexandra Zaïnal
Concept & original design : Baudouin d'Aumeries
Assistance for programming : Marc-Olivier Méhu
Technical & hardware support : Manuel Goepfert

Contact : metmap@orbifly.com




SOURCES & CREDITS :

   NOAA       Earth
Advisory